Time;durP1;ratioP1;P1;durP2;ratioP2;P2;SDS_P1;SDS_P2;PMS_P1;PMS_P2;Temp;Humidity;BMP_temperature;BMP_pressure;BME280_temperature;BME280_humidity;BME280_pressure;Samples;Min_cycle;Max_cycle;Signal;HPM_P1;HPM_P2
2024/02/05 00:02:15;;;;;;;20.80;4.97;;;11.20;99.90;;;;;;5142853;27;20145;-63
2024/02/05 00:04:41;;;;;;;25.05;4.70;;;11.20;99.90;;;;;;5144212;27;20117;-62
2024/02/05 00:07:07;;;;;;;29.75;6.22;;;11.20;99.90;;;;;;5139464;27;20346;-62
2024/02/05 00:09:33;;;;;;;31.10;5.57;;;11.10;99.90;;;;;;5138178;27;20039;-62
2024/02/05 00:12:00;;;;;;;29.23;5.32;;;11.20;99.90;;;;;;5136782;27;20042;-62
2024/02/05 00:14:25;;;;;;;29.83;6.28;;;11.20;99.90;;;;;;5135666;27;20499;-62
2024/02/05 00:16:51;;;;;;;28.25;4.88;;;11.10;99.90;;;;;;5139061;27;20042;-63
2024/02/05 00:19:17;;;;;;;24.67;5.57;;;11.10;99.90;;;;;;5144383;27;20384;-63
2024/02/05 00:21:42;;;;;;;30.63;5.60;;;11.10;99.90;;;;;;5138785;27;20046;-63
2024/02/05 00:24:08;;;;;;;22.42;4.63;;;11.10;99.90;;;;;;5142017;27;20408;-63
2024/02/05 00:26:34;;;;;;;26.48;7.13;;;11.20;99.90;;;;;;5138795;27;20047;-63
2024/02/05 00:29:00;;;;;;;25.25;4.75;;;11.10;99.90;;;;;;5125922;27;20035;-63
2024/02/05 00:31:25;;;;;;;26.80;5.15;;;11.10;99.90;;;;;;5135957;27;20043;-62
2024/02/05 00:33:51;;;;;;;31.52;6.07;;;11.10;99.90;;;;;;5142390;27;20038;-62
2024/02/05 00:36:17;;;;;;;33.13;7.90;;;11.10;99.90;;;;;;5136179;27;20031;-62
2024/02/05 00:38:42;;;;;;;30.27;5.72;;;11.10;99.90;;;;;;5140741;27;20030;-62
2024/02/05 00:41:08;;;;;;;23.25;5.45;;;11.10;99.90;;;;;;5141229;27;20030;-62
2024/02/05 00:43:34;;;;;;;24.73;5.70;;;11.10;99.90;;;;;;5138970;27;20502;-63
2024/02/05 00:45:59;;;;;;;32.50;5.72;;;11.10;99.90;;;;;;5142689;27;20137;-63
2024/02/05 00:48:25;;;;;;;30.63;6.05;;;11.10;99.90;;;;;;5145137;27;20146;-63
2024/02/05 00:50:51;;;;;;;27.23;5.63;;;11.10;99.90;;;;;;5131463;27;20751;-62
2024/02/05 00:53:17;;;;;;;25.38;6.32;;;11.00;99.90;;;;;;5143200;27;20114;-63
2024/02/05 00:55:42;;;;;;;23.95;4.80;;;11.10;99.90;;;;;;5121362;27;20167;-62
2024/02/05 00:58:08;;;;;;;29.80;5.50;;;11.10;99.90;;;;;;5143367;27;20042;-63
2024/02/05 01:00:34;;;;;;;30.58;6.07;;;11.00;99.90;;;;;;5139180;27;20039;-62
2024/02/05 01:02:59;;;;;;;32.42;5.65;;;11.10;99.90;;;;;;5140014;27;20066;-62
2024/02/05 01:05:25;;;;;;;34.22;6.35;;;11.00;99.90;;;;;;5139680;27;20074;-63
2024/02/05 01:07:51;;;;;;;39.67;6.32;;;11.10;99.90;;;;;;5144011;27;20788;-63
2024/02/05 01:10:17;;;;;;;41.47;6.72;;;11.10;99.90;;;;;;5145260;27;20273;-63
2024/02/05 01:12:42;;;;;;;33.38;5.78;;;11.10;99.90;;;;;;5137531;27;20070;-63
2024/02/05 01:15:10;;;;;;;28.63;5.70;;;11.10;99.90;;;;;;5142088;27;20034;-63
2024/02/05 01:17:35;;;;;;;27.15;5.43;;;11.10;99.90;;;;;;5140498;27;20064;-62
2024/02/05 01:20:01;;;;;;;32.40;6.45;;;11.10;99.90;;;;;;5141468;27;20039;-63
2024/02/05 01:22:27;;;;;;;29.48;5.93;;;11.10;99.90;;;;;;5142572;27;20046;-63
2024/02/05 01:24:53;;;;;;;32.13;5.88;;;11.00;99.90;;;;;;5135383;27;20031;-63
2024/02/05 01:27:19;;;;;;;29.48;5.97;;;11.00;99.90;;;;;;5128654;27;20041;-63
2024/02/05 01:29:44;;;;;;;22.13;5.50;;;11.00;99.90;;;;;;5144933;27;20062;-63
2024/02/05 01:32:13;;;;;;;25.67;6.32;;;11.10;99.90;;;;;;5141256;27;20547;-63
2024/02/05 01:34:41;;;;;;;28.23;6.53;;;11.10;99.90;;;;;;5141557;27;20041;-63
2024/02/05 01:37:07;;;;;;;26.42;5.65;;;11.00;99.90;;;;;;5136754;27;20031;-62
2024/02/05 01:39:32;;;;;;;27.30;4.78;;;11.00;99.90;;;;;;5144115;27;20035;-63
2024/02/05 01:41:59;;;;;;;28.77;6.03;;;11.00;99.90;;;;;;5141151;27;20038;-62
2024/02/05 01:44:25;;;;;;;34.30;6.47;;;11.00;99.90;;;;;;5143152;27;20062;-62
2024/02/05 01:46:51;;;;;;;29.73;5.60;;;11.10;99.90;;;;;;5144265;27;20046;-63
2024/02/05 01:49:17;;;;;;;26.45;6.63;;;11.10;99.90;;;;;;5144441;27;20057;-63
2024/02/05 01:51:50;;;;;;;29.52;6.80;;;11.10;99.90;;;;;;5144886;27;20059;-62
2024/02/05 01:54:17;;;;;;;38.53;7.55;;;11.00;99.90;;;;;;5144527;27;20045;-63
2024/02/05 01:56:45;;;;;;;36.95;7.45;;;11.00;99.90;;;;;;5145259;27;20514;-63
2024/02/05 01:59:12;;;;;;;32.53;7.28;;;11.00;99.90;;;;;;5117429;27;20574;-62
2024/02/05 02:01:40;;;;;;;31.30;6.82;;;11.10;99.90;;;;;;5144143;27;20039;-62
2024/02/05 02:04:07;;;;;;;28.30;6.57;;;11.00;99.90;;;;;;5141759;27;20137;-63
2024/02/05 02:06:37;;;;;;;36.00;6.90;;;11.10;99.90;;;;;;5140671;27;20058;-63
2024/02/05 02:09:05;;;;;;;35.90;6.68;;;11.10;99.90;;;;;;5143493;27;20149;-62
2024/02/05 02:11:30;;;;;;;34.25;7.05;;;11.00;99.90;;;;;;5132859;27;20070;-62
2024/02/05 02:13:56;;;;;;;30.80;5.78;;;11.00;99.90;;;;;;5146273;27;20121;-62
2024/02/05 02:16:26;;;;;;;35.88;5.50;;;11.00;99.90;;;;;;5140653;27;20151;-61
2024/02/05 02:18:55;;;;;;;26.65;6.22;;;11.00;99.90;;;;;;5145576;27;20051;-64
2024/02/05 02:21:21;;;;;;;32.63;7.03;;;11.00;99.90;;;;;;5145438;27;20038;-63
2024/02/05 02:23:47;;;;;;;37.45;6.40;;;11.00;99.90;;;;;;5145863;27;20421;-64
2024/02/05 02:26:13;;;;;;;30.92;6.20;;;11.00;99.90;;;;;;5143569;27;20078;-63
2024/02/05 02:28:39;;;;;;;35.67;6.72;;;11.00;99.90;;;;;;5142302;27;20200;-63
2024/02/05 02:31:06;;;;;;;35.13;7.70;;;11.00;99.90;;;;;;5143705;27;20039;-63
2024/02/05 02:33:50;;;;;;;32.03;6.45;;;11.00;99.90;;;;;;5138024;27;20096;-63
2024/02/05 02:36:26;;;;;;;40.67;8.77;;;11.00;99.90;;;;;;5138873;27;20061;-63
2024/02/05 02:39:03;;;;;;;34.28;6.70;;;10.90;99.90;;;;;;5129353;27;20035;-63
2024/02/05 02:41:32;;;;;;;29.35;5.82;;;11.00;99.90;;;;;;5137561;27;20053;-63
2024/02/05 02:44:01;;;;;;;36.03;7.22;;;11.00;99.90;;;;;;5143074;27;20502;-62
2024/02/05 02:46:30;;;;;;;32.63;6.93;;;11.00;99.90;;;;;;5138566;27;20838;-62
2024/02/05 02:48:56;;;;;;;;;;;11.00;99.90;;;;;;5142458;27;20078;-63
2024/02/05 02:51:23;;;;;;;32.83;6.78;;;11.00;99.90;;;;;;5139984;27;19957;-64
2024/02/05 02:53:49;;;;;;;33.45;7.22;;;11.00;99.90;;;;;;5133318;27;20126;-62
2024/02/05 02:56:15;;;;;;;35.60;7.03;;;11.00;99.90;;;;;;5146246;27;20473;-62
2024/02/05 02:58:41;;;;;;;41.88;8.48;;;11.00;99.90;;;;;;5130919;27;20117;-63
2024/02/05 03:01:06;;;;;;;29.95;6.95;;;11.00;99.90;;;;;;5134464;27;20036;-63
2024/02/05 03:03:32;;;;;;;34.10;6.97;;;11.00;99.90;;;;;;5139750;27;20046;-62
2024/02/05 03:05:58;;;;;;;36.30;8.35;;;11.00;99.90;;;;;;5131326;27;20039;-62
2024/02/05 03:08:24;;;;;;;35.85;7.18;;;10.90;99.90;;;;;;5146469;27;20644;-63
2024/02/05 03:10:50;;;;;;;34.05;6.65;;;10.90;99.90;;;;;;5134313;27;20042;-63
2024/02/05 03:13:17;;;;;;;38.17;7.03;;;11.00;99.90;;;;;;5144705;27;20038;-63
2024/02/05 03:15:43;;;;;;;39.55;7.22;;;10.90;99.90;;;;;;5138799;27;20038;-63
2024/02/05 03:18:09;;;;;;;37.88;8.07;;;10.90;99.90;;;;;;5130226;27;20043;-63
2024/02/05 03:20:40;;;;;;;33.22;6.82;;;10.90;99.90;;;;;;5140224;27;20648;-62
2024/02/05 03:23:09;;;;;;;37.45;6.78;;;10.90;99.90;;;;;;5144260;27;20043;-63
2024/02/05 03:25:35;;;;;;;;;;;10.80;99.90;;;;;;5139440;27;20043;-62
2024/02/05 03:28:02;;;;;;;32.97;6.93;;;10.80;99.90;;;;;;5142714;27;19926;-63
2024/02/05 03:30:29;;;;;;;28.88;7.75;;;10.80;99.90;;;;;;5136667;27;20038;-63
2024/02/05 03:32:55;;;;;;;33.22;6.57;;;10.70;99.90;;;;;;5145592;27;20050;-63
2024/02/05 03:35:22;;;;;;;34.67;7.22;;;10.70;99.90;;;;;;5135938;27;20027;-62
2024/02/05 03:37:48;;;;;;;38.35;7.28;;;10.70;99.90;;;;;;5140971;27;20088;-63
2024/02/05 03:40:14;;;;;;;35.67;7.03;;;10.70;99.90;;;;;;5139494;27;20514;-62
2024/02/05 03:42:40;;;;;;;32.17;7.22;;;10.60;99.90;;;;;;5144439;27;20042;-62
2024/02/05 03:45:06;;;;;;;43.22;6.68;;;10.60;99.90;;;;;;5143643;27;20038;-63
2024/02/05 03:47:32;;;;;;;38.42;6.60;;;10.50;99.90;;;;;;5138345;27;20042;-62
2024/02/05 03:49:58;;;;;;;34.80;8.20;;;10.40;99.90;;;;;;5143030;27;20461;-63
2024/02/05 03:52:23;;;;;;;25.33;7.25;;;10.50;99.90;;;;;;5144240;27;20111;-63
2024/02/05 03:54:49;;;;;;;35.33;7.35;;;10.40;99.90;;;;;;5140473;27;20827;-63
2024/02/05 03:57:15;;;;;;;34.08;7.05;;;10.30;99.90;;;;;;5140640;27;20030;-62
2024/02/05 03:59:41;;;;;;;43.92;7.68;;;10.30;99.90;;;;;;5138439;27;20059;-63
2024/02/05 04:02:07;;;;;;;42.22;8.40;;;10.20;99.90;;;;;;5141410;27;20606;-62
2024/02/05 04:04:34;;;;;;;42.97;7.32;;;10.30;99.90;;;;;;5142750;27;20069;-62
2024/02/05 04:06:59;;;;;;;36.50;7.78;;;10.20;99.90;;;;;;5137858;27;20034;-63
2024/02/05 04:09:25;;;;;;;39.83;8.65;;;10.20;99.90;;;;;;5140264;27;20521;-63
2024/02/05 04:11:51;;;;;;;36.40;6.78;;;10.20;99.90;;;;;;5141481;27;20031;-65
2024/02/05 04:14:17;;;;;;;45.80;7.55;;;10.20;99.90;;;;;;5135747;27;20055;-62
2024/02/05 04:16:43;;;;;;;34.10;8.20;;;10.20;99.90;;;;;;5145026;27;20031;-63
2024/02/05 04:19:09;;;;;;;45.53;8.30;;;10.20;99.90;;;;;;5140736;27;20061;-63
2024/02/05 04:21:34;;;;;;;47.17;8.95;;;10.10;99.90;;;;;;5133758;27;20035;-63
2024/02/05 04:24:00;;;;;;;38.85;8.98;;;10.10;99.90;;;;;;5123511;27;20041;-62
2024/02/05 04:26:26;;;;;;;43.58;7.07;;;10.10;99.90;;;;;;5137119;27;20035;-62
2024/02/05 04:28:52;;;;;;;37.10;8.32;;;10.10;99.90;;;;;;5139593;27;20038;-61
2024/02/05 04:31:18;;;;;;;37.28;7.95;;;10.10;99.90;;;;;;5141248;27;20518;-63
2024/02/05 04:33:47;;;;;;;37.40;7.93;;;10.10;99.90;;;;;;5133455;27;20089;-62
2024/02/05 04:36:13;;;;;;;;;;;10.20;99.90;;;;;;5142561;27;20096;-62
2024/02/05 04:38:40;;;;;;;30.05;6.60;;;10.10;99.90;;;;;;5138885;27;19915;-62
2024/02/05 04:41:07;;;;;;;39.72;9.48;;;10.10;99.90;;;;;;5133554;27;20450;-62
2024/02/05 04:43:33;;;;;;;36.22;9.52;;;10.20;99.90;;;;;;5136871;27;20444;-62
2024/02/05 04:45:59;;;;;;;42.53;9.15;;;10.10;99.90;;;;;;5145543;27;20098;-62
2024/02/05 04:48:25;;;;;;;38.63;8.45;;;10.10;99.90;;;;;;5140062;27;20055;-63
2024/02/05 04:50:51;;;;;;;38.20;8.27;;;10.10;99.90;;;;;;5145188;27;20047;-62
2024/02/05 04:53:17;;;;;;;51.15;8.48;;;10.10;99.90;;;;;;5135543;27;20083;-62
2024/02/05 04:55:42;;;;;;;45.33;9.70;;;10.10;99.90;;;;;;5144497;27;20129;-62
2024/02/05 04:58:09;;;;;;;47.40;9.00;;;10.10;99.90;;;;;;5143369;27;20097;-62
2024/02/05 05:00:35;;;;;;;37.33;7.35;;;10.20;99.90;;;;;;5136732;27;20030;-63
2024/02/05 05:03:01;;;;;;;43.00;8.23;;;10.20;99.90;;;;;;5141264;27;20039;-62
2024/02/05 05:05:27;;;;;;;46.17;8.57;;;10.10;99.90;;;;;;5114849;27;20407;-61
2024/02/05 05:07:52;;;;;;;42.60;8.98;;;10.10;99.90;;;;;;5139570;27;20050;-62
2024/02/05 05:10:18;;;;;;;28.58;7.78;;;10.10;99.90;;;;;;5137226;27;20048;-62
2024/02/05 05:12:44;;;;;;;36.05;7.40;;;10.10;99.90;;;;;;5138541;27;20407;-61
2024/02/05 05:15:15;;;;;;;34.85;8.13;;;10.10;99.90;;;;;;5143936;27;20030;-61
2024/02/05 05:17:41;;;;;;;38.03;8.70;;;10.10;99.90;;;;;;5138710;27;20456;-63
2024/02/05 05:20:07;;;;;;;40.67;8.52;;;10.10;99.90;;;;;;5134451;27;20558;-62
2024/02/05 05:22:33;;;;;;;49.35;9.27;;;10.10;99.90;;;;;;5146975;27;20142;-60
2024/02/05 05:24:59;;;;;;;37.05;7.97;;;10.00;99.90;;;;;;5143793;27;20490;-62
2024/02/05 05:27:24;;;;;;;45.05;8.85;;;10.00;99.90;;;;;;5141013;27;20129;-63
2024/02/05 05:29:50;;;;;;;41.72;8.23;;;10.00;99.90;;;;;;5146589;27;20081;-62
2024/02/05 05:32:16;;;;;;;43.92;8.73;;;10.00;99.90;;;;;;5139774;27;20039;-62
2024/02/05 05:34:42;;;;;;;44.83;8.25;;;10.10;99.90;;;;;;5142690;27;20130;-62
2024/02/05 05:37:08;;;;;;;35.33;7.38;;;10.10;99.90;;;;;;5141854;27;20039;-63
2024/02/05 05:39:35;;;;;;;40.83;8.07;;;10.10;99.90;;;;;;5145607;27;20427;-63
2024/02/05 05:42:01;;;;;;;43.88;8.23;;;10.10;99.90;;;;;;5147112;27;20034;-62
2024/02/05 05:44:27;;;;;;;48.90;8.95;;;10.10;99.90;;;;;;5146268;27;20043;-62
2024/02/05 05:46:55;;;;;;;40.60;8.73;;;10.00;99.90;;;;;;5140596;27;20042;-62
2024/02/05 05:49:21;;;;;;;37.85;7.85;;;10.10;99.90;;;;;;5133598;27;20038;-62
2024/02/05 05:51:47;;;;;;;37.05;7.95;;;10.10;99.90;;;;;;5146833;27;20041;-62
2024/02/05 05:54:13;;;;;;;35.10;7.97;;;10.10;99.90;;;;;;5141887;27;20047;-63
2024/02/05 05:56:38;;;;;;;31.73;7.18;;;10.10;99.90;;;;;;5137582;27;20137;-63
2024/02/05 05:59:04;;;;;;;41.67;8.80;;;10.10;99.90;;;;;;5140524;27;20069;-62
2024/02/05 06:01:35;;;;;;;42.63;8.90;;;10.10;99.90;;;;;;5138044;27;20499;-62
2024/02/05 06:04:01;;;;;;;28.70;7.25;;;10.00;99.90;;;;;;5137203;27;20067;-62
2024/02/05 06:06:26;;;;;;;34.92;7.72;;;10.10;99.90;;;;;;5137479;27;20070;-62
2024/02/05 06:08:52;;;;;;;36.75;7.55;;;10.00;99.90;;;;;;5140446;27;20113;-63
2024/02/05 06:11:18;;;;;;;51.50;10.13;;;10.00;99.90;;;;;;5138607;27;20038;-63
2024/02/05 06:13:44;;;;;;;40.88;8.50;;;10.00;99.90;;;;;;5135585;27;20357;-64
2024/02/05 06:16:09;;;;;;;33.90;8.27;;;10.10;99.90;;;;;;5142197;27;20077;-62
2024/02/05 06:18:35;;;;;;;42.08;8.93;;;10.00;99.90;;;;;;5144970;27;20069;-62
2024/02/05 06:21:01;;;;;;;40.78;8.32;;;10.00;99.90;;;;;;5143191;27;20406;-62
2024/02/05 06:23:27;;;;;;;35.30;8.02;;;10.00;99.90;;;;;;5139999;27;20091;-63
2024/02/05 06:25:52;;;;;;;35.38;7.88;;;10.00;99.90;;;;;;5146094;27;20049;-61
2024/02/05 06:28:18;;;;;;;35.97;8.63;;;10.00;99.90;;;;;;5143924;27;20118;-63
2024/02/05 06:30:49;;;;;;;42.88;8.30;;;10.00;99.90;;;;;;5116963;27;20113;-63
2024/02/05 06:33:18;;;;;;;35.92;8.18;;;10.00;99.90;;;;;;5135685;27;20090;-64
2024/02/05 06:35:44;;;;;;;34.20;7.22;;;10.00;99.90;;;;;;5145437;27;20035;-63
2024/02/05 06:38:10;;;;;;;45.78;8.90;;;10.00;99.90;;;;;;5140639;27;20031;-63
2024/02/05 06:40:37;;;;;;;34.42;7.90;;;10.00;99.90;;;;;;5138398;27;20043;-64
2024/02/05 06:43:03;;;;;;;46.63;9.35;;;10.00;99.90;;;;;;5141823;27;20047;-64
2024/02/05 06:45:28;;;;;;;41.10;8.18;;;10.00;99.90;;;;;;5126133;27;20074;-64
2024/02/05 06:47:57;;;;;;;39.47;8.73;;;10.00;99.90;;;;;;5141655;27;20516;-63
2024/02/05 06:50:23;;;;;;;41.42;9.05;;;10.00;99.90;;;;;;5143863;27;20042;-63
2024/02/05 06:52:49;;;;;;;30.90;7.20;;;10.00;99.90;;;;;;5141830;27;20499;-64
2024/02/05 06:55:15;;;;;;;26.85;6.10;;;10.00;99.90;;;;;;5143268;27;20035;-62
2024/02/05 06:57:41;;;;;;;37.85;8.15;;;10.00;99.90;;;;;;5143046;27;20050;-63
2024/02/05 07:00:08;;;;;;;34.28;7.72;;;10.00;99.90;;;;;;5142061;27;20027;-64
2024/02/05 07:02:34;;;;;;;35.15;7.93;;;10.00;99.90;;;;;;5138885;27;20897;-63
2024/02/05 07:05:01;;;;;;;34.47;7.78;;;10.00;99.90;;;;;;5142509;27;20041;-63
2024/02/05 07:07:27;;;;;;;35.83;6.88;;;10.00;99.90;;;;;;5140500;27;20085;-63
2024/02/05 07:09:53;;;;;;;46.13;10.20;;;10.00;99.90;;;;;;5142023;27;20038;-63
2024/02/05 07:12:19;;;;;;;33.40;8.00;;;10.00;99.90;;;;;;5142400;27;20115;-62
2024/02/05 07:14:45;;;;;;;29.27;6.65;;;10.00;99.90;;;;;;5124636;27;20108;-62
2024/02/05 07:17:15;;;;;;;29.90;6.88;;;10.00;99.90;;;;;;5140829;27;20117;-62
2024/02/05 07:19:41;;;;;;;43.28;8.98;;;10.00;99.90;;;;;;5143213;27;20031;-63
2024/02/05 07:22:12;;;;;;;31.92;6.97;;;10.00;99.90;;;;;;5140944;27;20046;-62
2024/02/05 07:24:38;;;;;;;32.78;7.03;;;10.00;99.90;;;;;;5141472;27;20656;-61
2024/02/05 07:27:04;;;;;;;34.83;7.60;;;9.90;99.90;;;;;;5141480;27;20034;-62
2024/02/05 07:29:29;;;;;;;36.47;8.18;;;9.90;99.90;;;;;;5141289;27;20087;-61
2024/02/05 07:31:55;;;;;;;35.80;8.88;;;9.90;99.90;;;;;;5138887;27;20499;-63
2024/02/05 07:34:21;;;;;;;32.72;6.70;;;9.90;99.90;;;;;;5142349;27;20076;-62
2024/02/05 07:36:47;;;;;;;37.80;7.63;;;9.90;99.90;;;;;;5140044;27;20122;-62
2024/02/05 07:39:13;;;;;;;38.75;7.32;;;9.80;99.90;;;;;;5144093;27;20114;-63
2024/02/05 07:41:39;;;;;;;34.88;7.13;;;9.80;99.90;;;;;;5140619;27;20563;-63
2024/02/05 07:44:05;;;;;;;27.40;6.75;;;9.80;99.90;;;;;;5140238;27;20035;-63
2024/02/05 07:46:30;;;;;;;37.95;9.13;;;9.80;99.90;;;;;;5142558;27;20411;-62
2024/02/05 07:48:57;;;;;;;36.28;8.90;;;9.80;99.90;;;;;;5141180;27;20592;-63
2024/02/05 07:51:23;;;;;;;32.25;6.85;;;9.80;99.90;;;;;;5141613;27;20825;-62
2024/02/05 07:53:49;;;;;;;48.17;7.65;;;9.80;99.90;;;;;;5142499;27;20042;-62
2024/02/05 07:56:15;;;;;;;33.40;7.63;;;9.50;99.90;;;;;;5140945;27;20521;-61
2024/02/05 07:58:41;;;;;;;30.95;6.30;;;9.80;99.90;;;;;;5142212;27;20035;-62
2024/02/05 08:01:07;;;;;;;39.97;7.55;;;9.80;99.90;;;;;;5142087;27;20030;-62
2024/02/05 08:03:35;;;;;;;38.92;7.88;;;9.70;99.90;;;;;;5137415;27;20509;-62
2024/02/05 08:06:06;;;;;;;28.45;6.70;;;9.70;99.90;;;;;;5140890;27;20107;-61
2024/02/05 08:08:32;;;;;;;35.38;8.13;;;9.70;99.90;;;;;;5137637;27;20042;-62
2024/02/05 08:10:58;;;;;;;32.63;7.43;;;9.70;99.90;;;;;;5135428;27;20039;-63
2024/02/05 08:13:24;;;;;;;32.13;6.53;;;9.70;99.90;;;;;;5139996;27;20117;-62
2024/02/05 08:15:49;;;;;;;30.20;6.80;;;9.70;99.90;;;;;;5120300;27;20106;-63
2024/02/05 08:18:15;;;;;;;35.58;6.88;;;9.70;99.90;;;;;;5140536;27;20034;-62
2024/02/05 08:20:41;;;;;;;35.15;7.20;;;9.70;99.90;;;;;;5141073;27;20034;-63
2024/02/05 08:23:07;;;;;;;44.50;7.55;;;9.70;99.90;;;;;;5137195;27;20050;-62
2024/02/05 08:25:34;;;;;;;31.42;7.13;;;9.70;99.90;;;;;;5137661;27;20463;-61
2024/02/05 08:28:00;;;;;;;38.05;7.43;;;9.70;99.90;;;;;;5142259;27;20042;-62
2024/02/05 08:30:26;;;;;;;35.53;6.53;;;9.70;99.90;;;;;;5135335;27;20042;-62
2024/02/05 08:32:52;;;;;;;46.72;9.32;;;9.70;99.90;;;;;;5142593;27;20046;-62
2024/02/05 08:35:18;;;;;;;27.88;6.53;;;9.70;99.90;;;;;;5139786;27;20085;-62
2024/02/05 08:37:44;;;;;;;26.52;6.65;;;9.60;99.90;;;;;;5141367;27;20101;-63
2024/02/05 08:40:10;;;;;;;37.92;7.65;;;9.70;99.90;;;;;;5139096;27;20967;-63
2024/02/05 08:42:36;;;;;;;32.92;7.90;;;9.70;99.90;;;;;;5139817;27;20114;-63
2024/02/05 08:45:02;;;;;;;33.53;6.10;;;9.70;99.90;;;;;;5142891;27;20099;-63
2024/02/05 08:47:28;;;;;;;35.28;7.28;;;9.80;99.90;;;;;;5139201;27;20664;-63
2024/02/05 08:49:54;;;;;;;30.33;6.60;;;9.70;99.90;;;;;;5141309;27;20070;-63
2024/02/05 08:52:22;;;;;;;28.13;5.90;;;9.70;99.90;;;;;;5139972;27;20113;-62
2024/02/05 08:54:49;;;;;;;34.60;7.95;;;9.80;99.90;;;;;;5138964;27;20082;-62
2024/02/05 08:57:15;;;;;;;36.80;7.07;;;9.80;99.90;;;;;;5124123;27;20035;-63
2024/02/05 08:59:41;;;;;;;38.63;7.55;;;9.80;99.90;;;;;;5143419;27;20042;-63
2024/02/05 09:02:06;;;;;;;30.50;6.95;;;9.80;99.90;;;;;;5125618;27;20487;-63
2024/02/05 09:04:32;;;;;;;35.53;7.13;;;9.80;99.90;;;;;;5143833;27;20396;-63
2024/02/05 09:06:58;;;;;;;31.40;7.22;;;9.80;99.90;;;;;;5143153;27;20045;-62
2024/02/05 09:09:24;;;;;;;26.08;6.40;;;9.80;99.90;;;;;;5143024;27;20403;-62
2024/02/05 09:11:50;;;;;;;39.30;7.60;;;9.80;99.90;;;;;;5142427;27;20574;-63
2024/02/05 09:14:15;;;;;;;36.47;6.65;;;9.80;99.90;;;;;;5144158;27;20138;-64
2024/02/05 09:16:41;;;;;;;33.55;6.97;;;9.80;99.90;;;;;;5141591;27;20346;-63
2024/02/05 09:19:07;;;;;;;36.40;6.82;;;9.80;99.90;;;;;;5143017;27;20460;-63
2024/02/05 09:21:32;;;;;;;32.13;7.25;;;9.80;99.90;;;;;;5144480;27;20439;-62
2024/02/05 09:23:58;;;;;;;37.67;8.13;;;9.80;99.90;;;;;;5142817;27;20049;-62
2024/02/05 09:26:24;;;;;;;34.22;7.13;;;9.80;99.90;;;;;;5144844;27;20043;-63
2024/02/05 09:28:50;;;;;;;30.67;6.72;;;9.90;99.90;;;;;;5124423;27;20039;-63
2024/02/05 09:31:15;;;;;;;31.13;5.97;;;9.80;99.90;;;;;;5143839;27;20098;-63
2024/02/05 09:33:41;;;;;;;36.55;6.85;;;9.80;99.90;;;;;;5143790;27;20045;-63
2024/02/05 09:36:07;;;;;;;29.63;7.13;;;9.80;99.90;;;;;;5143872;27;20031;-63
2024/02/05 09:38:33;;;;;;;32.78;7.03;;;9.90;99.90;;;;;;5144976;27;20034;-63
2024/02/05 09:41:07;;;;;;;31.52;5.88;;;9.90;99.90;;;;;;5124465;27;20062;-62
2024/02/05 09:43:33;;;;;;;29.45;6.55;;;9.90;99.90;;;;;;5144701;27;20050;-62
2024/02/05 09:46:07;;;;;;;25.48;5.93;;;9.90;99.90;;;;;;5143395;27;20586;-62
2024/02/05 09:48:34;;;;;;;27.60;6.32;;;9.90;99.90;;;;;;5144184;27;20047;-62
2024/02/05 09:51:01;;;;;;;27.15;7.18;;;9.90;99.90;;;;;;5143547;27;20572;-62
2024/02/05 09:53:28;;;;;;;24.13;6.85;;;10.00;99.90;;;;;;5141785;27;20690;-62
2024/02/05 09:55:55;;;;;;;32.25;6.07;;;9.90;99.90;;;;;;5137127;27;20046;-62
2024/02/05 09:58:21;;;;;;;26.50;6.70;;;9.90;99.90;;;;;;5137618;27;20054;-62
2024/02/05 10:00:47;;;;;;;34.92;7.10;;;9.90;99.90;;;;;;5139050;27;20035;-63
2024/02/05 10:03:16;;;;;;;23.38;6.70;;;9.90;99.90;;;;;;5137836;27;20045;-62
2024/02/05 10:05:44;;;;;;;16.63;6.03;;;10.00;99.90;;;;;;5137923;27;20080;-62
2024/02/05 10:08:11;;;;;;;22.80;6.28;;;10.00;99.90;;;;;;5138017;27;20142;-63
2024/02/05 10:10:41;;;;;;;26.85;6.75;;;10.00;99.90;;;;;;5140523;27;20603;-63
2024/02/05 10:13:08;;;;;;;30.63;6.85;;;9.90;99.90;;;;;;5142951;27;20346;-63
2024/02/05 10:15:34;;;;;;;28.92;6.70;;;9.90;99.90;;;;;;5142004;27;20145;-63
2024/02/05 10:18:00;;;;;;;31.00;5.95;;;10.00;99.90;;;;;;5143909;27;20402;-62
2024/02/05 10:20:35;;;;;;;22.52;6.47;;;9.90;99.90;;;;;;5142319;27;20046;-62
2024/02/05 10:23:01;;;;;;;29.60;7.25;;;10.00;99.90;;;;;;5140386;27;20046;-62
2024/02/05 10:25:27;;;;;;;31.35;6.57;;;10.00;99.90;;;;;;5141624;27;20074;-63
2024/02/05 10:28:01;;;;;;;30.58;6.95;;;10.00;99.90;;;;;;5143682;27;20118;-62
2024/02/05 10:30:31;;;;;;;24.10;6.88;;;10.00;99.90;;;;;;5142327;27;20507;-63
2024/02/05 10:32:57;;;;;;;27.70;7.55;;;10.10;99.90;;;;;;5142517;27;20150;-63
2024/02/05 10:35:24;;;;;;;25.20;6.20;;;10.00;99.90;;;;;;5142337;27;20414;-63
2024/02/05 10:37:50;;;;;;;25.05;5.75;;;10.10;99.90;;;;;;5142390;27;20133;-62
2024/02/05 10:40:15;;;;;;;22.48;5.35;;;10.10;99.90;;;;;;5142241;27;20550;-63
2024/02/05 10:42:44;;;;;;;30.20;6.75;;;10.10;99.90;;;;;;5143237;27;20528;-62
2024/02/05 10:45:10;;;;;;;;;;;10.00;99.90;;;;;;5143110;27;20118;-62
2024/02/05 10:47:37;;;;;;;34.80;6.20;;;10.10;99.90;;;;;;5143989;27;19919;-63
2024/02/05 10:50:07;;;;;;;28.55;6.88;;;10.10;99.90;;;;;;5123259;27;20049;-63
2024/02/05 10:52:33;;;;;;;26.10;5.82;;;10.10;99.90;;;;;;5144115;27;20126;-62
2024/02/05 10:55:02;;;;;;;15.27;5.82;;;10.10;99.90;;;;;;5140195;27;20202;-62
2024/02/05 10:57:28;;;;;;;18.60;5.25;;;10.20;99.90;;;;;;5141060;27;20053;-62
2024/02/05 10:59:54;;;;;;;30.85;6.70;;;10.20;99.90;;;;;;5142898;27;20034;-62
2024/02/05 11:02:25;;;;;;;20.65;6.15;;;10.10;99.90;;;;;;5142490;27;20487;-63
2024/02/05 11:04:56;;;;;;;23.83;5.03;;;10.10;99.90;;;;;;5141159;27;20498;-64
2024/02/05 11:07:24;;;;;;;26.13;6.05;;;10.10;99.90;;;;;;5139380;27;20639;-62
2024/02/05 11:09:51;;;;;;;27.33;6.93;;;10.20;99.90;;;;;;5140711;27;20117;-63
2024/02/05 11:12:21;;;;;;;23.30;5.78;;;10.20;99.90;;;;;;5141621;27;20038;-62
2024/02/05 11:14:50;;;;;;;29.65;6.15;;;10.10;99.90;;;;;;5142204;27;20091;-62
2024/02/05 11:17:18;;;;;;;24.35;5.28;;;10.20;99.90;;;;;;5138526;27;20502;-62
2024/02/05 11:19:47;;;;;;;24.55;6.07;;;10.10;99.90;;;;;;5142756;27;20038;-63
2024/02/05 11:22:16;;;;;;;25.70;5.93;;;10.10;99.90;;;;;;5142916;27;20046;-62
2024/02/05 11:24:43;;;;;;;20.52;5.70;;;10.10;99.90;;;;;;5142732;27;20113;-62
2024/02/05 11:27:11;;;;;;;18.52;5.32;;;10.00;99.90;;;;;;5142498;27;20034;-62
2024/02/05 11:29:40;;;;;;;22.48;5.78;;;10.00;99.90;;;;;;5141568;27;20042;-62
2024/02/05 11:32:06;;;;;;;26.08;6.90;;;10.00;99.90;;;;;;5142381;27;20053;-62
2024/02/05 11:34:37;;;;;;;24.95;5.80;;;9.90;99.90;;;;;;5141734;27;20034;-61
2024/02/05 11:37:16;;;;;;;20.27;5.35;;;10.00;99.90;;;;;;5141681;27;20034;-63
2024/02/05 11:39:45;;;;;;;19.20;5.55;;;9.90;99.90;;;;;;5142530;27;20038;-63
2024/02/05 11:42:13;;;;;;;20.15;5.72;;;9.90;99.90;;;;;;5140071;27;20042;-63
2024/02/05 11:44:39;;;;;;;26.60;6.83;;;10.00;99.90;;;;;;5141162;27;20045;-63
2024/02/05 11:47:05;;;;;;;23.55;6.22;;;9.90;99.90;;;;;;5121218;27;20030;-63
2024/02/05 11:49:32;;;;;;;30.40;6.75;;;9.90;99.90;;;;;;5139451;27;20044;-64
2024/02/05 11:51:58;;;;;;;26.50;5.95;;;9.90;99.90;;;;;;5140306;27;20034;-64
2024/02/05 11:54:23;;;;;;;29.85;5.78;;;9.90;99.90;;;;;;5135835;27;20050;-64
2024/02/05 11:56:49;;;;;;;27.23;5.68;;;9.90;99.90;;;;;;5140635;27;20031;-63
2024/02/05 11:59:15;;;;;;;23.10;5.25;;;9.90;99.90;;;;;;5141726;27;21780;-64
2024/02/05 12:01:41;;;;;;;22.35;5.97;;;9.90;99.90;;;;;;5138853;27;20062;-64
2024/02/05 12:04:07;;;;;;;22.20;4.85;;;9.90;99.90;;;;;;5138895;27;20081;-63
2024/02/05 12:06:34;;;;;;;24.20;5.63;;;9.90;99.90;;;;;;5140684;27;20054;-63
2024/02/05 12:09:00;;;;;;;28.80;6.30;;;9.90;99.90;;;;;;5135931;27;20096;-64
2024/02/05 12:11:26;;;;;;;19.55;5.03;;;9.80;99.90;;;;;;5137524;27;20060;-64
2024/02/05 12:13:58;;;;;;;22.52;5.85;;;9.90;99.90;;;;;;5138876;27;20034;-64
2024/02/05 12:16:30;;;;;;;31.13;6.78;;;9.80;99.90;;;;;;5137292;27;20642;-64
2024/02/05 12:18:56;;;;;;;27.05;6.82;;;9.80;99.90;;;;;;5140336;27;20037;-63
2024/02/05 12:21:24;;;;;;;31.15;5.97;;;9.80;99.90;;;;;;5135987;27;20043;-63
2024/02/05 12:23:50;;;;;;;29.00;7.75;;;9.90;99.90;;;;;;5139127;27;20569;-63
2024/02/05 12:26:16;;;;;;;24.42;6.22;;;9.80;99.90;;;;;;5139973;27;20043;-64
2024/02/05 12:28:42;;;;;;;25.88;5.72;;;9.80;99.90;;;;;;5141893;27;20035;-63
2024/02/05 12:31:08;;;;;;;25.40;5.78;;;9.80;99.90;;;;;;5141539;27;20125;-63
2024/02/05 12:33:33;;;;;;;27.42;5.43;;;9.90;99.90;;;;;;5139302;27;20571;-63
2024/02/05 12:36:04;;;;;;;18.65;5.57;;;9.80;99.90;;;;;;5140193;27;20031;-62
2024/02/05 12:38:30;;;;;;;33.15;6.22;;;9.90;99.90;;;;;;5139318;27;20034;-63